Time;durP1;ratioP1;P1;durP2;ratioP2;P2;SDS_P1;SDS_P2;PMS_P1;PMS_P2;Temp;Humidity;BMP_temperature;BMP_pressure;BME280_temperature;BME280_humidity;BME280_pressure;Samples;Min_cycle;Max_cycle;Signal;HPM_P1;HPM_P2
2023/01/23 00:00:00;;;;;;;21.23;12.97;;;-1.10;99.90;;;;;;5062460;28;20476;-83
2023/01/23 00:02:27;;;;;;;22.90;15.47;;;-1.10;99.90;;;;;;5062853;28;20491;-83
2023/01/23 00:04:59;;;;;;;20.63;14.97;;;-1.20;99.90;;;;;;5059164;28;20550;-82
2023/01/23 00:07:26;;;;;;;26.73;16.43;;;-1.20;99.90;;;;;;5060450;28;20928;-83
2023/01/23 00:09:56;;;;;;;20.77;13.27;;;-1.20;99.90;;;;;;5058521;28;20596;-83
2023/01/23 00:12:23;;;;;;;20.00;14.80;;;-1.20;99.90;;;;;;5062231;28;20470;-83
2023/01/23 00:14:51;;;;;;;22.60;15.93;;;-1.20;99.90;;;;;;5064857;28;20600;-83
2023/01/23 00:17:18;;;;;;;18.90;12.17;;;-1.20;99.90;;;;;;5062646;28;20523;-83
2023/01/23 00:19:45;;;;;;;19.60;13.33;;;-1.20;99.90;;;;;;5061401;28;20444;-82
2023/01/23 00:22:14;;;;;;;19.67;13.60;;;-1.30;99.90;;;;;;5072808;28;20496;-83
2023/01/23 00:24:44;;;;;;;23.10;15.43;;;-1.20;99.90;;;;;;5061558;28;20475;-82
2023/01/23 00:27:11;;;;;;;18.20;13.83;;;-1.20;99.90;;;;;;5061858;28;20765;-83
2023/01/23 00:29:38;;;;;;;19.90;15.63;;;-1.10;99.90;;;;;;5062226;28;20573;-82
2023/01/23 00:32:06;;;;;;;16.47;12.17;;;-1.10;99.90;;;;;;5062357;28;21213;-83
2023/01/23 00:34:33;;;;;;;23.43;15.30;;;-1.10;99.90;;;;;;5063149;28;20934;-82
2023/01/23 00:37:03;;;;;;;22.27;14.53;;;-1.10;99.90;;;;;;5063691;28;20464;-82
2023/01/23 00:39:31;;;;;;;21.57;14.20;;;-1.10;99.90;;;;;;5068701;28;20452;-83
2023/01/23 00:42:07;;;;;;;18.50;14.40;;;-1.10;99.90;;;;;;5060590;28;20499;-83
2023/01/23 00:44:34;;;;;;;18.10;13.30;;;-1.10;99.90;;;;;;5062574;28;20480;-83
2023/01/23 00:47:01;;;;;;;19.40;13.77;;;-1.10;99.90;;;;;;5059515;28;20907;-83
2023/01/23 00:49:29;;;;;;;16.83;11.73;;;-1.10;99.90;;;;;;5062979;28;20500;-83
2023/01/23 00:51:56;;;;;;;19.93;14.20;;;-1.10;99.90;;;;;;5060504;28;20452;-83
2023/01/23 00:54:24;;;;;;;24.03;15.90;;;-1.10;99.90;;;;;;5063703;28;20597;-83
2023/01/23 00:56:51;;;;;;;18.87;13.50;;;-1.10;99.90;;;;;;5058125;28;20533;-83
2023/01/23 00:59:18;;;;;;;17.27;13.43;;;-1.00;99.90;;;;;;5065055;28;20905;-83
2023/01/23 01:01:45;;;;;;;20.83;14.43;;;-1.10;99.90;;;;;;5060077;28;20841;-83
2023/01/23 01:04:12;;;;;;;21.00;14.93;;;-0.90;99.90;;;;;;5065367;28;20541;-82
2023/01/23 01:06:41;;;;;;;22.48;14.43;;;-0.90;99.90;;;;;;5062320;28;20453;-82
2023/01/23 01:09:09;;;;;;;21.80;15.07;;;-1.00;99.90;;;;;;5065062;28;20275;-82
2023/01/23 01:11:36;;;;;;;20.90;13.53;;;-1.10;99.90;;;;;;5061461;28;20530;-83
2023/01/23 01:14:04;;;;;;;21.23;12.93;;;-1.10;99.90;;;;;;5064666;28;20924;-82
2023/01/23 01:16:31;;;;;;;22.60;15.97;;;-1.00;99.90;;;;;;5063495;28;21264;-83
2023/01/23 01:18:58;;;;;;;21.17;13.80;;;-1.00;99.90;;;;;;5062801;28;21076;-83
2023/01/23 01:21:25;;;;;;;22.55;14.15;;;-1.00;99.90;;;;;;5063836;28;20451;-82
2023/01/23 01:23:53;;;;;;;22.73;16.27;;;-1.10;99.90;;;;;;5060643;28;20299;-83
2023/01/23 01:26:22;;;;;;;21.93;14.20;;;-0.90;99.90;;;;;;5061469;28;20550;-83
2023/01/23 01:28:49;;;;;;;28.20;16.23;;;-1.00;99.90;;;;;;5059012;28;20458;-82
2023/01/23 01:31:16;;;;;;;24.08;15.88;;;-0.90;99.90;;;;;;5064951;28;20708;-83
2023/01/23 01:33:44;;;;;;;21.97;14.93;;;-0.90;99.90;;;;;;5069603;28;20214;-83
2023/01/23 01:36:11;;;;;;;22.07;17.13;;;-0.90;99.90;;;;;;5062846;28;20588;-83
2023/01/23 01:38:39;;;;;;;23.75;15.55;;;-1.00;99.90;;;;;;5062989;28;20483;-83
2023/01/23 01:41:08;;;;;;;20.77;15.00;;;-1.00;99.90;;;;;;5064621;28;20237;-82
2023/01/23 01:43:35;;;;;;;21.77;15.50;;;-1.00;99.90;;;;;;5070477;28;20471;-82
2023/01/23 01:46:17;;;;;;;29.57;16.10;;;-1.00;99.90;;;;;;5066233;28;20484;-83
2023/01/23 01:48:51;;;;;;;19.10;12.37;;;-1.00;99.90;;;;;;5067296;28;20553;-83
2023/01/23 01:51:27;;;;;;;19.70;14.43;;;-1.00;99.90;;;;;;5060691;28;21050;-82
2023/01/23 01:54:00;;;;;;;21.53;16.07;;;-1.10;99.90;;;;;;5058288;28;20544;-83
2023/01/23 01:56:30;;;;;;;23.20;14.90;;;-1.00;99.90;;;;;;5062975;28;20499;-83
2023/01/23 01:58:58;;;;;;;23.60;15.80;;;-1.10;99.90;;;;;;5062195;28;20492;-83
2023/01/23 02:01:29;;;;;;;26.27;16.07;;;-1.00;99.90;;;;;;5064537;28;20483;-83
2023/01/23 02:03:56;;;;;;;22.73;16.05;;;-1.10;99.90;;;;;;5061766;28;20500;-83
2023/01/23 02:06:26;;;;;;;25.17;15.60;;;-1.00;99.90;;;;;;5060330;28;20229;-83
2023/01/23 02:09:00;;;;;;;23.13;14.40;;;-0.90;99.90;;;;;;5060267;28;20964;-82
2023/01/23 02:11:28;;;;;;;22.27;13.77;;;-0.90;99.90;;;;;;5061239;28;20900;-83
2023/01/23 02:13:56;;;;;;;21.83;14.68;;;-1.00;99.90;;;;;;5062151;28;20839;-82
2023/01/23 02:16:30;;;;;;;27.73;15.93;;;-0.90;99.90;;;;;;5059772;28;20236;-83
2023/01/23 02:19:02;;;;;;;23.40;14.50;;;-0.90;99.90;;;;;;5065711;28;20448;-83
2023/01/23 02:21:31;;;;;;;20.10;13.90;;;-0.90;99.90;;;;;;5062377;28;20467;-82
2023/01/23 02:24:11;;;;;;;21.90;13.27;;;-1.00;99.90;;;;;;5062989;28;20506;-83
2023/01/23 02:26:45;;;;;;;20.40;13.93;;;-1.00;99.90;;;;;;5062353;28;20479;-82
2023/01/23 02:29:14;;;;;;;25.23;15.93;;;-1.00;99.90;;;;;;5062629;28;20517;-83
2023/01/23 02:31:43;;;;;;;22.00;13.90;;;-1.00;99.90;;;;;;5062435;28;20530;-83
2023/01/23 02:34:12;;;;;;;25.50;16.73;;;-1.10;99.90;;;;;;5065320;28;20454;-83
2023/01/23 02:36:44;;;;;;;22.70;15.03;;;-1.10;99.90;;;;;;5066248;28;20520;-83
2023/01/23 02:39:15;;;;;;;21.80;12.27;;;-1.10;99.90;;;;;;5069672;28;20553;-83
2023/01/23 02:41:46;;;;;;;23.90;15.30;;;-1.10;99.90;;;;;;5058557;28;20510;-83
2023/01/23 02:44:20;;;;;;;24.80;14.93;;;-1.00;99.90;;;;;;5064475;28;20468;-82
2023/01/23 02:46:47;;;;;;;23.83;16.47;;;-0.90;99.90;;;;;;5060001;28;20470;-83
2023/01/23 02:49:17;;;;;;;23.23;15.80;;;-0.90;99.90;;;;;;5059168;28;20467;-83
2023/01/23 02:51:46;;;;;;;28.77;16.70;;;-1.10;99.90;;;;;;5061880;28;20559;-83
2023/01/23 02:54:13;;;;;;;22.60;15.10;;;-1.00;99.90;;;;;;5062730;28;20536;-82
2023/01/23 02:56:40;;;;;;;24.70;16.27;;;-1.10;99.90;;;;;;5060856;28;20546;-83
2023/01/23 03:01:53;;;;;;;23.27;15.17;;;-1.10;99.90;;;;;;5060483;28;20447;-83
2023/01/23 03:04:23;;;;;;;27.43;16.73;;;-1.10;99.90;;;;;;5060481;28;20467;-82
2023/01/23 03:06:50;;;;;;;22.07;15.77;;;-1.00;99.90;;;;;;5062748;28;20839;-82
2023/01/23 03:09:21;;;;;;;25.53;16.37;;;-1.00;99.90;;;;;;5062157;28;20487;-82
2023/01/23 03:11:49;;;;;;;26.77;17.23;;;-1.10;99.90;;;;;;5060434;28;20440;-82
2023/01/23 03:14:19;;;;;;;25.20;16.03;;;-1.00;99.90;;;;;;5061449;28;20460;-82
2023/01/23 03:16:50;;;;;;;19.67;14.43;;;-1.00;99.90;;;;;;5059437;28;20900;-82
2023/01/23 03:19:18;;;;;;;24.90;13.93;;;-1.00;99.90;;;;;;5061777;28;20502;-83
2023/01/23 03:21:46;;;;;;;23.20;16.20;;;-1.00;99.90;;;;;;5056302;28;20533;-83
2023/01/23 03:24:14;;;;;;;23.80;16.20;;;-0.90;99.90;;;;;;5060317;28;20834;-83
2023/01/23 03:26:45;;;;;;;22.77;16.10;;;-0.90;99.90;;;;;;5061682;28;20549;-82
2023/01/23 03:32:03;;;;;;;23.90;14.73;;;-0.90;99.90;;;;;;5060883;28;20451;-82
2023/01/23 03:34:31;;;;;;;27.10;16.00;;;-0.90;99.90;;;;;;5059111;28;20456;-82
2023/01/23 03:36:59;;;;;;;23.93;15.07;;;-1.10;99.90;;;;;;5060479;28;20578;-82
2023/01/23 03:42:10;;;;;;;22.52;14.88;;;-1.10;99.90;;;;;;5061382;28;20287;-82
2023/01/23 03:44:38;;;;;;;25.20;16.07;;;-1.10;99.90;;;;;;5060556;28;20210;-82
2023/01/23 03:47:06;;;;;;;25.30;16.43;;;-1.10;99.90;;;;;;5060419;28;20505;-82
2023/01/23 03:49:33;;;;;;;26.92;15.52;;;-1.10;99.90;;;;;;5061648;28;20496;-82
2023/01/23 03:52:02;;;;;;;23.53;15.33;;;-1.10;99.90;;;;;;5056992;28;20233;-82
2023/01/23 03:54:29;;;;;;;24.27;16.07;;;-1.10;99.90;;;;;;5061598;28;20484;-81
2023/01/23 03:56:56;;;;;;;24.92;15.95;;;-1.10;99.90;;;;;;5060727;28;20584;-81
2023/01/23 03:59:22;;;;;;;20.33;16.15;;;-1.10;99.90;;;;;;5061295;28;20674;-82
2023/01/23 04:01:49;;;;;;;24.33;17.07;;;-1.10;99.90;;;;;;5061673;28;20879;-82
2023/01/23 04:04:18;;;;;;;29.58;16.45;;;-1.10;99.90;;;;;;5061556;28;20456;-81
2023/01/23 04:06:47;;;;;;;22.20;15.50;;;-1.00;99.90;;;;;;5059245;28;20198;-82
2023/01/23 04:09:14;;;;;;;23.75;14.90;;;-1.00;99.90;;;;;;5061414;28;21086;-82
2023/01/23 04:11:41;;;;;;;24.73;16.10;;;-1.10;99.90;;;;;;5062368;28;20275;-82
2023/01/23 04:14:10;;;;;;;25.40;15.77;;;-1.00;99.90;;;;;;5060563;28;21173;-82
2023/01/23 04:16:37;;;;;;;27.97;16.13;;;-0.90;99.90;;;;;;5059638;28;20270;-82
2023/01/23 04:19:09;;;;;;;25.88;16.08;;;-1.00;99.90;;;;;;5062532;28;20507;-83
2023/01/23 04:21:37;;;;;;;29.07;18.13;;;-1.00;99.90;;;;;;5065169;28;20209;-82
2023/01/23 04:24:04;;;;;;;25.60;14.40;;;-0.90;99.90;;;;;;5061857;28;20476;-83
2023/01/23 04:26:34;;;;;;;23.90;15.70;;;-1.00;99.90;;;;;;5065846;28;20561;-83
2023/01/23 04:29:01;;;;;;;24.23;16.17;;;-1.00;99.90;;;;;;5067454;28;20451;-83
2023/01/23 04:31:28;;;;;;;25.60;15.33;;;-0.90;99.90;;;;;;5070739;28;20462;-83
2023/01/23 04:33:55;;;;;;;26.47;17.60;;;-0.90;99.90;;;;;;5063683;28;20533;-82
2023/01/23 04:36:22;;;;;;;25.70;17.50;;;-0.90;99.90;;;;;;5066768;28;20552;-82
2023/01/23 04:38:50;;;;;;;25.13;16.10;;;-1.00;99.90;;;;;;5063171;28;20480;-82
2023/01/23 04:41:20;;;;;;;27.70;18.83;;;-0.90;99.90;;;;;;5063935;28;20491;-82
2023/01/23 04:43:47;;;;;;;28.77;18.43;;;-0.80;99.90;;;;;;5062156;28;20518;-82
2023/01/23 04:46:17;;;;;;;29.33;20.50;;;-0.80;99.90;;;;;;5063539;28;20463;-82
2023/01/23 04:48:49;;;;;;;24.90;17.37;;;-0.80;99.90;;;;;;5065649;28;20461;-82
2023/01/23 04:51:16;;;;;;;25.83;16.60;;;-0.90;99.90;;;;;;5063152;28;20462;-82
2023/01/23 04:53:43;;;;;;;28.57;18.80;;;-0.90;99.90;;;;;;5065467;28;20537;-82
2023/01/23 04:56:11;;;;;;;26.00;16.93;;;-0.90;99.90;;;;;;5062256;28;20476;-82
2023/01/23 04:58:38;;;;;;;30.07;18.80;;;-0.90;99.90;;;;;;5064220;28;20550;-82
2023/01/23 05:01:07;;;;;;;25.37;18.10;;;-1.00;99.90;;;;;;5064548;28;20584;-82
2023/01/23 05:03:37;;;;;;;29.73;17.23;;;-0.90;99.90;;;;;;5065094;28;20547;-82
2023/01/23 05:06:04;;;;;;;29.20;18.10;;;-0.90;99.90;;;;;;5060516;28;20437;-82
2023/01/23 05:08:31;;;;;;;27.73;17.38;;;-0.90;99.90;;;;;;5062358;28;20546;-82
2023/01/23 05:11:00;;;;;;;23.10;15.77;;;-0.70;99.90;;;;;;5060693;28;20233;-82
2023/01/23 05:13:31;;;;;;;28.40;18.17;;;-0.70;99.90;;;;;;5061650;28;20464;-82
2023/01/23 05:15:58;;;;;;;24.23;16.40;;;-0.70;99.90;;;;;;5062228;28;20491;-82
2023/01/23 05:18:25;;;;;;;24.23;16.17;;;-0.60;99.90;;;;;;5060553;28;20995;-82
2023/01/23 05:20:52;;;;;;;45.27;25.70;;;-0.70;99.90;;;;;;5060556;28;20920;-82
2023/01/23 05:23:21;;;;;;;66.00;38.97;;;-0.70;99.90;;;;;;5064228;28;20566;-82
2023/01/23 05:25:48;;;;;;;52.65;29.80;;;-0.90;99.90;;;;;;5060471;28;20512;-82
2023/01/23 05:28:15;;;;;;;28.33;19.30;;;-0.90;99.90;;;;;;5062847;28;20653;-82
2023/01/23 05:30:43;;;;;;;32.23;19.33;;;-0.90;99.90;;;;;;5061785;28;20504;-82
2023/01/23 05:33:10;;;;;;;31.90;17.53;;;-0.90;99.90;;;;;;5058995;28;20488;-82
2023/01/23 05:35:39;;;;;;;32.17;19.13;;;-1.00;99.90;;;;;;5064840;28;20841;-82
2023/01/23 05:38:15;;;;;;;28.95;17.73;;;-1.00;99.90;;;;;;5056741;28;20993;-82
2023/01/23 05:40:42;;;;;;;25.63;16.30;;;-1.00;99.90;;;;;;5064116;28;20233;-82
2023/01/23 05:43:11;;;;;;;25.80;17.70;;;-0.90;99.90;;;;;;5064740;28;21009;-82
2023/01/23 05:45:46;;;;;;;25.93;17.50;;;-1.00;99.90;;;;;;5063399;28;20295;-82
2023/01/23 05:48:19;;;;;;;32.67;19.30;;;-0.90;99.90;;;;;;5059578;28;20459;-82
2023/01/23 05:50:47;;;;;;;25.50;16.20;;;-0.90;99.90;;;;;;5056243;28;20304;-82
2023/01/23 05:53:13;;;;;;;25.60;18.55;;;-0.80;99.90;;;;;;5054100;28;20489;-82
2023/01/23 05:55:41;;;;;;;28.45;17.83;;;-0.70;99.90;;;;;;5057872;28;20317;-82
2023/01/23 05:58:08;;;;;;;24.67;17.15;;;-0.60;99.90;;;;;;5070567;28;20203;-82
2023/01/23 06:00:38;;;;;;;30.40;18.73;;;-0.60;99.90;;;;;;5057643;28;20238;-82
2023/01/23 06:03:05;;;;;;;26.58;18.15;;;-0.60;99.90;;;;;;5067596;28;20237;-82
2023/01/23 06:05:33;;;;;;;29.48;18.85;;;-0.70;99.90;;;;;;5062368;28;20276;-82
2023/01/23 06:08:00;;;;;;;30.07;18.70;;;-0.70;99.90;;;;;;5072622;28;20205;-82
2023/01/23 06:10:27;;;;;;;25.47;18.47;;;-0.60;99.90;;;;;;5063292;28;20468;-82
2023/01/23 06:12:57;;;;;;;31.63;19.33;;;-0.60;99.90;;;;;;5057384;28;20858;-82
2023/01/23 06:15:24;;;;;;;23.97;17.33;;;-0.60;99.90;;;;;;5078038;28;20479;-82
2023/01/23 06:17:55;;;;;;;27.90;18.13;;;-0.60;99.90;;;;;;5064062;28;20512;-82
2023/01/23 06:20:22;;;;;;;25.00;17.43;;;-0.50;99.90;;;;;;5060604;28;20916;-82
2023/01/23 06:22:51;;;;;;;27.80;17.90;;;-0.60;99.90;;;;;;5056884;28;20473;-82
2023/01/23 06:27:59;;;;;;;25.67;17.17;;;-0.80;99.90;;;;;;5059287;28;20486;-82
2023/01/23 06:30:26;;;;;;;28.60;18.80;;;-0.80;99.90;;;;;;5085212;28;20532;-82
2023/01/23 06:32:53;;;;;;;32.70;18.20;;;-0.80;99.90;;;;;;5078493;28;20731;-82
2023/01/23 06:35:20;;;;;;;30.93;19.40;;;-0.70;99.90;;;;;;5059779;28;20453;-82
2023/01/23 06:37:47;;;;;;;33.15;19.90;;;-0.70;99.90;;;;;;5069604;28;21076;-82
2023/01/23 06:40:17;;;;;;;27.23;17.60;;;-0.80;99.90;;;;;;5062953;28;20238;-82
2023/01/23 06:42:44;;;;;;;25.37;17.90;;;-0.80;99.90;;;;;;5065835;28;20206;-82
2023/01/23 06:45:12;;;;;;;33.55;20.95;;;-0.90;99.90;;;;;;5060237;28;20993;-82
2023/01/23 06:47:39;;;;;;;33.47;19.40;;;-0.80;99.90;;;;;;5059917;28;20387;-82
2023/01/23 06:50:06;;;;;;;27.30;18.58;;;-0.80;99.90;;;;;;5056349;28;20452;-88
2023/01/23 06:52:33;;;;;;;31.00;18.55;;;-0.80;99.90;;;;;;5064218;28;20540;-82
2023/01/23 06:55:00;;;;;;;26.73;19.07;;;-0.90;99.90;;;;;;5060360;28;20279;-82
2023/01/23 06:57:28;;;;;;;32.15;20.38;;;-0.70;99.90;;;;;;5051880;28;20524;-82
2023/01/23 06:59:55;;;;;;;35.90;20.23;;;-0.80;99.90;;;;;;5056505;28;20625;-82
2023/01/23 07:02:23;;;;;;;33.40;20.50;;;-0.80;99.90;;;;;;5060426;28;20241;-82
2023/01/23 07:04:50;;;;;;;35.42;22.55;;;-0.70;99.90;;;;;;5056870;28;20456;-82
2023/01/23 07:07:20;;;;;;;34.07;21.37;;;-0.70;99.90;;;;;;5062398;28;20206;-82
2023/01/23 07:09:47;;;;;;;33.47;21.45;;;-0.70;99.90;;;;;;5058958;28;20597;-83
2023/01/23 07:12:14;;;;;;;36.58;21.70;;;-0.80;99.90;;;;;;5054964;28;20203;-82
2023/01/23 07:14:42;;;;;;;38.17;23.07;;;-0.70;99.90;;;;;;5056790;28;20229;-84
2023/01/23 07:17:14;;;;;;;36.10;20.90;;;-0.70;99.90;;;;;;5057353;28;20511;-83
2023/01/23 07:19:41;;;;;;;39.15;23.92;;;-0.80;99.90;;;;;;5059988;28;20552;-84
2023/01/23 07:22:08;;;;;;;30.57;20.60;;;-0.70;99.90;;;;;;5065569;28;20233;-84
2023/01/23 07:24:35;;;;;;;37.65;22.88;;;-0.70;99.90;;;;;;5060045;28;20503;-83
2023/01/23 07:27:02;;;;;;;28.53;20.73;;;-0.80;99.90;;;;;;5057733;28;20407;-83
2023/01/23 07:29:29;;;;;;;39.27;19.73;;;-0.70;99.90;;;;;;5063382;28;20460;-83
2023/01/23 07:31:59;;;;;;;39.50;23.07;;;-0.80;99.90;;;;;;5058563;28;20993;-83
2023/01/23 07:34:26;;;;;;;30.73;21.10;;;-0.80;99.90;;;;;;5048947;28;20782;-83
2023/01/23 07:36:53;;;;;;;36.15;22.88;;;-0.70;99.90;;;;;;5057882;28;20992;-83
2023/01/23 07:39:20;;;;;;;32.33;21.73;;;-0.70;99.90;;;;;;5055166;28;20237;-83
2023/01/23 07:41:49;;;;;;;31.13;20.58;;;-0.70;99.90;;;;;;5061091;28;20202;-83
2023/01/23 07:44:18;;;;;;;34.83;21.17;;;-0.60;99.90;;;;;;5054435;28;20234;-83
2023/01/23 07:46:46;;;;;;;34.00;21.20;;;-0.50;99.90;;;;;;5060442;28;20537;-83
2023/01/23 07:49:14;;;;;;;38.50;21.60;;;-0.40;99.90;;;;;;5048128;28;20534;-83
2023/01/23 07:51:41;;;;;;;32.87;19.97;;;-0.40;99.90;;;;;;5054950;28;20489;-83
2023/01/23 07:54:12;;;;;;;34.70;19.37;;;-0.50;99.90;;;;;;5058894;28;20728;-83
2023/01/23 07:56:39;;;;;;;34.73;22.23;;;-0.30;99.90;;;;;;5056281;28;20482;-83
2023/01/23 07:59:10;;;;;;;30.00;21.00;;;-0.10;99.90;;;;;;5054206;28;20473;-83
2023/01/23 08:01:37;;;;;;;29.37;19.97;;;-0.10;99.90;;;;;;5066552;28;20955;-83
2023/01/23 08:04:04;;;;;;;28.73;20.37;;;0.10;99.90;;;;;;5062894;28;20534;-83
2023/01/23 08:06:33;;;;;;;35.20;22.60;;;0.00;99.90;;;;;;5050865;28;20899;-82
2023/01/23 08:09:00;;;;;;;30.67;20.13;;;0.10;99.90;;;;;;5062999;28;20790;-83
2023/01/23 08:11:28;;;;;;;33.03;21.80;;;0.30;99.90;;;;;;5065322;28;21060;-83
2023/01/23 08:14:00;;;;;;;30.70;20.23;;;0.20;99.90;;;;;;5060368;28;20460;-83
2023/01/23 08:16:27;;;;;;;26.73;20.43;;;0.30;99.90;;;;;;5058633;28;20521;-83
2023/01/23 08:18:54;;;;;;;29.30;20.23;;;0.30;99.90;;;;;;5061413;28;20462;-83
2023/01/23 08:21:22;;;;;;;32.77;21.40;;;0.30;99.90;;;;;;5066040;28;20467;-83
2023/01/23 08:23:53;;;;;;;26.83;18.50;;;0.40;99.90;;;;;;5064390;28;20522;-83
2023/01/23 08:26:22;;;;;;;29.00;18.57;;;0.50;99.90;;;;;;5053611;28;20816;-83
2023/01/23 08:28:49;;;;;;;31.77;19.87;;;0.60;99.90;;;;;;5058266;28;20553;-82
2023/01/23 08:31:16;;;;;;;32.80;20.70;;;0.60;99.90;;;;;;5062824;28;20536;-83
2023/01/23 08:33:43;;;;;;;29.97;19.40;;;0.60;99.90;;;;;;5054987;28;20581;-83
2023/01/23 08:36:14;;;;;;;34.13;20.07;;;0.60;99.90;;;;;;5061578;28;20499;-83
2023/01/23 08:38:41;;;;;;;33.57;20.30;;;0.50;99.90;;;;;;5065265;28;20494;-83
2023/01/23 08:41:12;;;;;;;25.50;19.60;;;0.70;99.90;;;;;;5060521;28;20518;-83
2023/01/23 08:43:40;;;;;;;31.47;21.67;;;0.70;99.90;;;;;;5064946;28;20563;-83
2023/01/23 08:46:08;;;;;;;32.33;20.70;;;1.00;99.90;;;;;;5060581;28;20796;-84
2023/01/23 08:48:38;;;;;;;42.23;21.63;;;0.80;99.90;;;;;;5060865;28;21140;-82
2023/01/23 08:51:07;;;;;;;28.03;18.53;;;0.90;99.90;;;;;;5062043;28;20784;-82
2023/01/23 08:53:35;;;;;;;26.57;18.70;;;1.10;99.90;;;;;;5069247;28;20494;-81
2023/01/23 08:56:03;;;;;;;28.43;20.47;;;1.10;99.90;;;;;;5056246;28;20529;-81
2023/01/23 08:58:35;;;;;;;26.67;17.47;;;1.00;99.90;;;;;;5063294;28;20476;-81
2023/01/23 09:01:02;;;;;;;28.57;18.10;;;1.10;99.90;;;;;;5054621;28;21118;-81
2023/01/23 09:03:33;;;;;;;26.93;17.97;;;1.00;99.90;;;;;;5056695;28;20456;-81
2023/01/23 09:06:01;;;;;;;25.20;17.00;;;1.10;99.90;;;;;;5060389;28;20444;-81
2023/01/23 09:08:28;;;;;;;25.53;17.83;;;1.00;99.90;;;;;;5062996;28;20455;-81
2023/01/23 09:11:00;;;;;;;25.07;17.57;;;1.20;99.90;;;;;;5061145;28;20472;-81
2023/01/23 09:13:27;;;;;;;27.73;20.17;;;1.30;99.90;;;;;;5058622;28;20670;-81
2023/01/23 09:15:55;;;;;;;29.97;18.70;;;1.30;99.90;;;;;;5061492;28;20533;-81
2023/01/23 09:18:23;;;;;;;29.80;20.10;;;1.50;99.90;;;;;;5063588;28;20523;-81
2023/01/23 09:20:54;;;;;;;27.53;18.47;;;1.30;99.90;;;;;;5060966;28;20999;-81
2023/01/23 09:23:22;;;;;;;24.00;16.80;;;1.60;99.90;;;;;;5064478;28;20796;-81
2023/01/23 09:25:51;;;;;;;24.97;15.07;;;1.60;99.90;;;;;;5070724;28;20545;-80
2023/01/23 09:28:18;;;;;;;23.17;16.67;;;2.00;99.90;;;;;;5062817;28;20484;-79
2023/01/23 09:30:48;;;;;;;20.83;15.40;;;2.40;99.90;;;;;;5062510;28;20534;-80
2023/01/23 09:33:16;;;;;;;22.80;16.07;;;2.70;99.90;;;;;;5052569;28;20968;-80
2023/01/23 09:35:45;;;;;;;24.10;16.67;;;3.00;99.90;;;;;;5066003;28;20832;-79
2023/01/23 09:38:12;;;;;;;22.73;17.00;;;3.10;99.90;;;;;;5057087;28;20487;-80
2023/01/23 09:40:49;;;;;;;21.30;15.80;;;3.10;99.90;;;;;;5053508;28;20514;-79
2023/01/23 09:43:24;;;;;;;21.73;15.50;;;2.90;99.90;;;;;;5055986;28;20499;-81
2023/01/23 09:46:01;;;;;;;21.80;16.27;;;2.50;99.90;;;;;;5059093;28;20501;-82
2023/01/23 09:48:34;;;;;;;20.63;14.47;;;2.60;99.90;;;;;;5058323;28;20456;-82
2023/01/23 09:51:07;;;;;;;21.97;15.67;;;2.40;99.90;;;;;;5058169;28;20460;-82
2023/01/23 09:53:37;;;;;;;21.80;15.53;;;2.50;99.90;;;;;;5060456;28;20459;-82
2023/01/23 09:56:19;;;;;;;23.10;14.90;;;2.30;99.90;;;;;;5058005;28;20522;-81
2023/01/23 09:58:59;;;;;;;21.40;17.13;;;2.40;99.90;;;;;;5054689;28;20504;-81
2023/01/23 10:01:29;;;;;;;24.37;17.67;;;2.40;99.90;;;;;;5066890;28;20475;-82
2023/01/23 10:03:59;;;;;;;22.23;16.27;;;2.50;99.90;;;;;;5064047;28;20491;-82
2023/01/23 10:06:29;;;;;;;23.27;16.00;;;2.50;99.90;;;;;;5051803;28;20476;-83
2023/01/23 10:09:22;;;;;;;27.17;17.90;;;2.50;99.90;;;;;;5060365;28;20548;-82
2023/01/23 10:11:59;;;;;;;26.87;16.17;;;2.40;99.90;;;;;;5058409;28;20463;-81
2023/01/23 10:14:52;;;;;;;25.50;16.40;;;2.40;99.90;;;;;;5052924;28;21484;-81
2023/01/23 10:17:27;;;;;;;20.33;15.13;;;2.30;99.90;;;;;;5048132;28;20635;-81
2023/01/23 10:20:15;;;;;;;19.10;15.57;;;2.00;99.90;;;;;;5065393;28;21021;-81
2023/01/23 10:22:50;;;;;;;20.30;14.83;;;1.90;99.90;;;;;;5050945;28;20485;-81
2023/01/23 10:25:22;;;;;;;19.97;15.00;;;2.00;99.90;;;;;;5047411;28;20496;-81
2023/01/23 10:27:50;;;;;;;23.57;16.00;;;2.00;99.90;;;;;;5052137;28;20502;-81
2023/01/23 10:30:22;;;;;;;22.20;15.20;;;2.10;99.90;;;;;;5059969;28;20865;-81
2023/01/23 10:32:52;;;;;;;22.83;15.70;;;2.40;99.90;;;;;;5050923;28;20727;-81
2023/01/23 10:35:37;;;;;;;18.63;14.03;;;2.60;99.90;;;;;;5051997;28;21351;-81
2023/01/23 10:38:12;;;;;;;18.90;14.30;;;2.60;99.90;;;;;;5055371;28;20744;-81
2023/01/23 10:43:26;;;;;;;21.03;15.33;;;2.30;99.90;;;;;;5078224;28;20446;-80
2023/01/23 10:45:53;;;;;;;23.60;17.07;;;2.50;99.90;;;;;;5060726;28;20496;-81
2023/01/23 10:48:41;;;;;;;25.30;16.93;;;2.40;99.90;;;;;;5053359;28;21151;-81
2023/01/23 10:51:30;;;;;;;24.30;16.00;;;2.30;99.90;;;;;;5058089;28;20475;-81
2023/01/23 10:54:17;;;;;;;19.23;13.47;;;2.20;99.90;;;;;;5051472;28;20491;-81
2023/01/23 10:56:57;;;;;;;26.13;18.10;;;2.50;99.90;;;;;;5048863;28;21041;-81
2023/01/23 10:59:31;;;;;;;20.53;14.93;;;2.60;99.90;;;;;;5059043;28;20491;-81
2023/01/23 11:02:17;;;;;;;21.00;13.37;;;2.60;99.90;;;;;;5054241;28;20517;-80
2023/01/23 11:04:45;;;;;;;25.93;16.00;;;2.50;99.90;;;;;;5049517;28;20971;-81
2023/01/23 11:07:15;;;;;;;25.53;14.17;;;2.40;99.90;;;;;;5066057;28;20537;-83
2023/01/23 11:09:51;;;;;;;17.17;11.70;;;1.90;99.90;;;;;;5061660;28;20499;-81
2023/01/23 11:12:21;;;;;;;22.57;14.17;;;1.80;99.90;;;;;;5056620;28;20488;-80
2023/01/23 11:14:48;;;;;;;21.80;13.40;;;1.70;99.90;;;;;;5061003;28;20521;-81
2023/01/23 11:17:21;;;;;;;28.40;18.47;;;1.80;99.90;;;;;;5055373;28;20468;-81
2023/01/23 11:19:52;;;;;;;25.03;16.00;;;2.00;99.90;;;;;;5060881;28;20824;-80
2023/01/23 11:22:31;;;;;;;24.03;15.50;;;2.10;99.90;;;;;;5058170;28;20519;-81
2023/01/23 11:24:58;;;;;;;24.83;16.07;;;1.90;99.90;;;;;;5062540;28;20491;-81
2023/01/23 11:27:28;;;;;;;25.40;15.33;;;2.00;99.90;;;;;;5065306;28;20529;-81
2023/01/23 11:30:25;;;;;;;23.87;16.87;;;1.80;99.90;;;;;;5061877;28;21030;-82
2023/01/23 11:32:59;;;;;;;27.53;16.93;;;1.60;99.90;;;;;;5055175;28;20495;-82
2023/01/23 11:35:40;;;;;;;24.47;17.07;;;1.50;99.90;;;;;;5059017;28;20547;-82
2023/01/23 11:38:12;;;;;;;23.77;16.80;;;1.60;99.90;;;;;;5067518;28;20514;-83
2023/01/23 11:40:39;;;;;;;25.90;15.60;;;1.60;99.90;;;;;;5065724;28;20800;-83
2023/01/23 11:43:13;;;;;;;24.67;15.67;;;1.60;99.90;;;;;;5051838;28;20557;-83
2023/01/23 11:45:53;;;;;;;26.73;17.90;;;1.60;99.90;;;;;;5056616;28;20896;-83
2023/01/23 11:48:36;;;;;;;20.67;15.93;;;1.90;99.90;;;;;;5062516;28;20492;-83
2023/01/23 11:51:14;;;;;;;26.23;16.80;;;1.90;99.90;;;;;;5052396;28;20492;-82
2023/01/23 11:53:47;;;;;;;25.27;15.13;;;1.80;99.90;;;;;;5064024;28;22410;-82
2023/01/23 11:56:52;;;;;;;26.50;16.27;;;1.70;99.90;;;;;;5055015;28;20488;-85
2023/01/23 11:59:46;;;;;;;23.97;17.53;;;1.60;99.90;;;;;;5014856;28;21049;-82
2023/01/23 12:02:35;;;;;;;32.80;17.00;;;1.50;99.90;;;;;;5053101;28;20527;-82
2023/01/23 12:05:38;;;;;;;40.03;18.60;;;1.50;99.90;;;;;;5064888;28;20480;-81
2023/01/23 12:08:18;;;;;;;30.17;18.70;;;1.60;99.90;;;;;;5048092;28;20477;-81
2023/01/23 12:10:57;;;;;;;33.00;18.30;;;1.40;99.90;;;;;;5065164;28;20528;-82
2023/01/23 12:13:42;;;;;;;32.40;16.50;;;1.40;99.90;;;;;;5070224;28;20458;-82
2023/01/23 12:16:19;;;;;;;30.03;17.10;;;1.60;99.90;;;;;;5069667;28;20487;-82
2023/01/23 12:18:58;;;;;;;25.67;17.10;;;1.70;99.90;;;;;;5055632;28;20935;-82
2023/01/23 12:21:35;;;;;;;36.53;19.27;;;1.70;99.90;;;;;;5077483;28;20451;-82
2023/01/23 12:24:13;;;;;;;25.90;16.00;;;1.70;99.90;;;;;;5053428;28;20961;-80
2023/01/23 12:26:56;;;;;;;32.47;18.10;;;1.80;99.90;;;;;;5068782;28;20552;-81
2023/01/23 12:29:47;;;;;;;27.90;18.90;;;1.50;99.90;;;;;;5067221;28;20492;-81
2023/01/23 12:32:39;;;;;;;26.87;16.47;;;1.40;99.90;;;;;;5055531;28;21201;-82
2023/01/23 12:35:29;;;;;;;32.53;20.83;;;1.30;99.90;;;;;;5054685;28;20529;-82
2023/01/23 12:38:13;;;;;;;34.37;18.57;;;1.30;99.90;;;;;;5062817;28;20491;-82
2023/01/23 12:40:43;;;;;;;31.53;16.80;;;1.30;99.90;;;;;;5054096;28;20552;-82
2023/01/23 12:43:16;;;;;;;28.97;18.60;;;1.30;99.90;;;;;;5055826;28;20928;-82
2023/01/23 12:45:49;;;;;;;31.20;19.57;;;1.30;99.90;;;;;;5061863;28;20464;-82
2023/01/23 12:48:27;;;;;;;33.77;20.00;;;1.40;99.90;;;;;;5055533;28;20490;-82
2023/01/23 12:50:59;;;;;;;30.53;18.47;;;1.60;99.90;;;;;;5063590;28;20462;-82
2023/01/23 12:53:29;;;;;;;26.67;15.70;;;1.60;99.90;;;;;;5049339;28;20501;-82
2023/01/23 12:56:01;;;;;;;25.77;16.10;;;1.50;99.90;;;;;;5069992;28;20467;-82
2023/01/23 12:58:37;;;;;;;27.33;15.77;;;1.40;99.90;;;;;;5064589;28;20861;-82
2023/01/23 13:01:15;;;;;;;25.10;15.00;;;1.20;99.90;;;;;;5070776;28;20495;-82